createdAt,value
2023-01-17T00:01:45.507Z,6.22
2023-01-17T00:04:31.872Z,6.30
2023-01-17T00:07:17.574Z,6.10
2023-01-17T00:09:53.616Z,5.45
2023-01-17T00:12:21.988Z,5.43
2023-01-17T00:14:49.188Z,5.50
2023-01-17T00:17:16.315Z,5.07
2023-01-17T00:20:01.611Z,5.82
2023-01-17T00:22:49.167Z,4.57
2023-01-17T00:25:37.256Z,4.75
2023-01-17T00:28:05.906Z,4.80
2023-01-17T00:30:33.554Z,4.93
2023-01-17T00:33:00.488Z,4.68
2023-01-17T00:35:29.828Z,4.50
2023-01-17T00:38:14.128Z,4.78
2023-01-17T00:40:42.910Z,5.35
2023-01-17T00:43:30.196Z,4.15
2023-01-17T00:46:16.514Z,6.68
2023-01-17T00:49:02.566Z,5.22
2023-01-17T00:51:49.533Z,5.45
2023-01-17T00:54:35.565Z,4.80
2023-01-17T00:57:22.161Z,4.10
2023-01-17T01:00:07.778Z,4.25
2023-01-17T01:02:53.722Z,4.13
2023-01-17T01:05:39.438Z,3.47
2023-01-17T01:08:51.284Z,3.80
2023-01-17T01:11:39.373Z,4.45
2023-01-17T01:14:26.763Z,3.95
2023-01-17T01:17:12.188Z,4.13
2023-01-17T01:19:57.871Z,4.00
2023-01-17T01:22:43.317Z,3.58
2023-01-17T01:25:28.879Z,4.20
2023-01-17T01:28:25.665Z,4.35
2023-01-17T01:31:11.299Z,4.28
2023-01-17T01:33:38.434Z,4.05
2023-01-17T01:36:08.036Z,4.07
2023-01-17T01:38:35.154Z,3.47
2023-01-17T01:41:02.118Z,3.83
2023-01-17T01:43:50.183Z,3.78
2023-01-17T01:46:23.605Z,3.53
2023-01-17T01:48:56.647Z,3.70
2023-01-17T01:51:29.670Z,3.88
2023-01-17T01:54:10.444Z,3.55
2023-01-17T01:56:39.335Z,3.88
2023-01-17T01:59:11.433Z,3.20
2023-01-17T02:01:38.506Z,2.33
2023-01-17T02:04:10.195Z,2.83
2023-01-17T02:06:43.637Z,3.90
2023-01-17T02:09:12.807Z,3.45
2023-01-17T02:11:41.072Z,3.63
2023-01-17T02:14:08.848Z,4.15
2023-01-17T02:16:51.404Z,3.90
2023-01-17T02:19:38.116Z,3.13
2023-01-17T02:22:26.288Z,3.67
2023-01-17T02:25:18.246Z,3.80
2023-01-17T02:28:16.403Z,3.97
2023-01-17T02:30:48.710Z,3.42
2023-01-17T02:33:29.145Z,3.97
2023-01-17T02:36:38.595Z,3.72
2023-01-17T02:39:24.810Z,3.47
2023-01-17T02:42:01.096Z,4.05
2023-01-17T02:44:28.010Z,4.18
2023-01-17T02:46:58.186Z,3.78
2023-01-17T02:49:31.567Z,3.72
2023-01-17T02:52:06.218Z,3.42
2023-01-17T02:54:42.097Z,4.50
2023-01-17T02:57:42.279Z,4.47
2023-01-17T03:00:36.491Z,4.13
2023-01-17T03:03:09.279Z,3.50
2023-01-17T03:06:04.422Z,3.00
2023-01-17T03:08:31.503Z,3.33
2023-01-17T03:10:58.850Z,4.57
2023-01-17T03:13:25.822Z,4.03
2023-01-17T03:15:52.811Z,4.45
2023-01-17T03:18:19.764Z,4.00
2023-01-17T03:20:46.766Z,3.08
2023-01-17T03:23:13.694Z,3.20
2023-01-17T03:25:40.648Z,3.67
2023-01-17T03:28:07.628Z,4.15
2023-01-17T03:30:34.702Z,3.80
2023-01-17T03:33:01.681Z,2.35
2023-01-17T03:35:28.621Z,3.50
2023-01-17T03:37:56.778Z,3.92
2023-01-17T03:40:23.802Z,3.00
2023-01-17T03:42:50.757Z,2.97
2023-01-17T03:45:17.720Z,2.15
2023-01-17T03:47:44.631Z,3.25
2023-01-17T03:50:13.223Z,3.22
2023-01-17T03:52:40.307Z,3.10
2023-01-17T03:55:07.758Z,2.40
2023-01-17T03:57:34.679Z,3.75
2023-01-17T04:00:08.055Z,2.70
2023-01-17T04:02:35.437Z,2.50
2023-01-17T04:05:02.576Z,2.92
2023-01-17T04:07:30.513Z,3.50
2023-01-17T04:09:57.455Z,3.08
2023-01-17T04:12:24.396Z,2.35
2023-01-17T04:14:51.330Z,1.88
2023-01-17T04:17:20.245Z,2.55
2023-01-17T04:19:47.803Z,3.08
2023-01-17T04:22:14.725Z,2.67
2023-01-17T04:24:41.734Z,2.97
2023-01-17T04:27:09.251Z,2.33
2023-01-17T04:29:36.269Z,3.17
2023-01-17T04:32:03.268Z,3.63
2023-01-17T04:34:30.222Z,3.67
2023-01-17T04:36:57.284Z,3.97
2023-01-17T04:39:24.266Z,1.88
2023-01-17T04:41:51.227Z,1.95
2023-01-17T04:44:18.245Z,3.65
2023-01-17T04:46:45.230Z,3.00
2023-01-17T04:49:12.131Z,2.83
2023-01-17T04:51:39.153Z,3.05
2023-01-17T04:54:06.150Z,2.90
2023-01-17T04:56:33.139Z,3.35
2023-01-17T04:59:00.121Z,3.50
2023-01-17T05:01:27.476Z,3.25
2023-01-17T05:03:54.493Z,4.22
2023-01-17T05:06:21.507Z,3.42
2023-01-17T05:08:48.568Z,2.20
2023-01-17T05:11:15.645Z,1.95
2023-01-17T05:13:42.594Z,3.08
2023-01-17T05:16:09.608Z,2.92
2023-01-17T05:18:37.790Z,3.15
2023-01-17T05:21:05.099Z,2.75
2023-01-17T05:23:33.147Z,2.22
2023-01-17T05:26:00.197Z,2.65
2023-01-17T05:28:27.226Z,3.35
2023-01-17T05:30:54.181Z,2.97
2023-01-17T05:33:21.189Z,2.53
2023-01-17T05:35:48.125Z,2.50
2023-01-17T05:38:15.115Z,2.65
2023-01-17T05:40:42.294Z,2.22
2023-01-17T05:43:09.254Z,1.35
2023-01-17T05:45:36.445Z,2.00
2023-01-17T05:48:04.188Z,1.17
2023-01-17T05:50:37.281Z,2.03
2023-01-17T05:53:11.146Z,2.42
2023-01-17T05:55:39.155Z,1.92
2023-01-17T05:58:07.461Z,1.98
2023-01-17T06:00:34.675Z,1.80
2023-01-17T06:03:01.860Z,1.83
2023-01-17T06:05:29.480Z,2.47
2023-01-17T06:07:56.721Z,1.27
2023-01-17T06:10:24.713Z,1.40
2023-01-17T06:13:22.086Z,2.20
2023-01-17T06:15:49.466Z,1.92
2023-01-17T06:18:24.548Z,2.10
2023-01-17T06:20:55.274Z,2.10
2023-01-17T06:23:23.324Z,2.13
2023-01-17T06:25:51.216Z,1.88
2023-01-17T06:28:20.936Z,3.88
2023-01-17T06:30:48.369Z,3.28
2023-01-17T06:33:15.902Z,2.72
2023-01-17T06:35:53.124Z,2.80
2023-01-17T06:38:20.321Z,2.58
2023-01-17T06:40:47.330Z,2.70
2023-01-17T06:43:14.339Z,2.60
2023-01-17T06:45:41.402Z,1.92
2023-01-17T06:48:08.392Z,1.42
2023-01-17T06:50:35.726Z,2.30
2023-01-17T06:53:05.880Z,2.00
2023-01-17T06:55:34.262Z,1.95
2023-01-17T06:58:03.112Z,2.85
2023-01-17T07:00:31.881Z,2.97
2023-01-17T07:02:58.955Z,1.45
2023-01-17T07:05:26.120Z,1.48
2023-01-17T07:07:53.715Z,3.03
2023-01-17T07:10:21.375Z,1.67
2023-01-17T07:12:48.399Z,2.78
2023-01-17T07:15:15.601Z,2.22
2023-01-17T07:17:42.620Z,2.30
2023-01-17T07:20:10.285Z,2.97
2023-01-17T07:22:37.874Z,2.85
2023-01-17T07:25:05.590Z,3.50
2023-01-17T07:27:33.739Z,3.10
2023-01-17T07:30:00.842Z,2.50
2023-01-17T07:32:28.376Z,3.40
2023-01-17T07:34:57.700Z,2.85
2023-01-17T07:37:26.538Z,2.38
2023-01-17T07:39:54.646Z,2.22
2023-01-17T07:44:53.269Z,2.10
2023-01-17T07:47:20.258Z,2.80
2023-01-17T07:49:47.206Z,3.78
2023-01-17T07:52:18.017Z,2.72
2023-01-17T07:54:45.160Z,3.45
2023-01-17T07:57:12.725Z,2.40
2023-01-17T07:59:39.701Z,2.95
2023-01-17T08:02:08.084Z,2.13
2023-01-17T08:04:35.380Z,1.65
2023-01-17T08:07:02.597Z,2.65
2023-01-17T08:09:29.628Z,3.05
2023-01-17T08:11:56.573Z,1.40
2023-01-17T08:14:23.527Z,3.03
2023-01-17T08:16:50.736Z,2.53
2023-01-17T08:19:17.728Z,2.60
2023-01-17T08:21:44.976Z,2.42
2023-01-17T08:24:15.065Z,2.47
2023-01-17T08:26:42.099Z,2.22
2023-01-17T08:29:09.491Z,1.95
2023-01-17T08:31:36.830Z,2.15
2023-01-17T08:34:04.161Z,2.17
2023-01-17T08:36:31.476Z,2.17
2023-01-17T08:38:58.988Z,1.77
2023-01-17T08:41:27.907Z,2.22
2023-01-17T08:43:54.980Z,2.70
2023-01-17T08:46:22.585Z,2.97
2023-01-17T08:48:54.251Z,1.38
2023-01-17T08:51:21.594Z,2.08
2023-01-17T08:53:48.666Z,2.03
2023-01-17T08:56:15.681Z,1.70
2023-01-17T08:58:42.650Z,2.03
2023-01-17T09:01:09.680Z,1.88
2023-01-17T09:03:38.921Z,2.00
2023-01-17T09:06:10.727Z,2.25
2023-01-17T09:08:38.571Z,1.45
2023-01-17T09:11:11.552Z,2.20
2023-01-17T09:13:39.158Z,2.35
2023-01-17T09:16:07.273Z,2.50
2023-01-17T09:18:35.860Z,2.40
2023-01-17T09:21:15.196Z,2.55
2023-01-17T09:23:43.037Z,1.67
2023-01-17T09:26:27.916Z,1.80
2023-01-17T09:28:55.815Z,2.30
2023-01-17T09:31:24.190Z,2.80
2023-01-17T09:33:52.223Z,2.60
2023-01-17T09:36:19.505Z,2.25
2023-01-17T09:38:46.861Z,2.30
2023-01-17T09:41:48.854Z,1.85
2023-01-17T09:44:45.937Z,2.20
2023-01-17T09:47:31.683Z,1.65
2023-01-17T09:50:22.788Z,2.80
2023-01-17T09:52:50.574Z,2.17
2023-01-17T09:55:18.970Z,6.28
2023-01-17T09:58:19.630Z,3.33
2023-01-17T10:01:17.488Z,4.47
2023-01-17T10:04:00.066Z,7.15
2023-01-17T10:06:45.395Z,6.90
2023-01-17T10:09:46.311Z,2.22
2023-01-17T10:12:16.464Z,1.98
2023-01-17T10:15:07.340Z,1.92
2023-01-17T10:17:40.428Z,2.08
2023-01-17T10:20:38.727Z,2.83
2023-01-17T10:23:33.344Z,3.55
2023-01-17T10:26:14.346Z,2.03
2023-01-17T10:28:51.154Z,10.50
2023-01-17T10:31:26.733Z,2.92
2023-01-17T10:33:55.546Z,1.50
2023-01-17T10:36:36.040Z,2.20
2023-01-17T10:39:14.748Z,4.60
2023-01-17T10:41:47.818Z,1.63
2023-01-17T10:44:27.886Z,3.28
2023-01-17T10:46:54.789Z,1.40
2023-01-17T10:49:24.115Z,2.58
2023-01-17T10:52:08.440Z,3.45
2023-01-17T10:54:51.414Z,3.20
2023-01-17T10:57:28.511Z,3.65
2023-01-17T11:00:00.993Z,3.08
2023-01-17T11:02:33.077Z,9.85
2023-01-17T11:05:05.679Z,1.42
2023-01-17T11:07:32.710Z,2.72
2023-01-17T11:10:00.030Z,2.70
2023-01-17T11:12:37.779Z,2.67
2023-01-17T11:15:10.547Z,2.20
2023-01-17T11:17:43.414Z,3.05
2023-01-17T11:20:28.111Z,4.57
2023-01-17T11:23:12.308Z,3.15
2023-01-17T11:25:39.425Z,3.13
2023-01-17T11:28:23.868Z,3.85
2023-01-17T11:30:56.511Z,2.75
2023-01-17T11:33:46.070Z,5.35
2023-01-17T11:36:33.352Z,2.75
2023-01-17T11:39:19.002Z,1.92
2023-01-17T11:41:52.274Z,2.85
2023-01-17T11:44:34.600Z,2.20
2023-01-17T11:47:08.744Z,3.33
2023-01-17T11:49:35.961Z,3.78
2023-01-17T11:52:09.695Z,3.22
2023-01-17T11:54:40.317Z,3.95
2023-01-17T11:57:17.904Z,5.65
2023-01-17T11:59:45.955Z,3.22
2023-01-17T12:02:49.775Z,8.57
2023-01-17T12:05:42.894Z,2.38
2023-01-17T12:08:15.881Z,3.17
2023-01-17T12:11:07.999Z,3.20
2023-01-17T12:14:06.483Z,3.03
2023-01-17T12:17:02.791Z,3.15
2023-01-17T12:20:01.405Z,1.95
2023-01-17T12:22:46.858Z,3.20
2023-01-17T12:25:31.693Z,2.80
2023-01-17T12:28:17.217Z,3.22
2023-01-17T12:30:53.322Z,2.90
2023-01-17T12:33:45.794Z,2.92
2023-01-17T12:36:36.416Z,3.60
2023-01-17T12:39:11.969Z,4.45
2023-01-17T12:41:50.513Z,3.03
2023-01-17T12:44:19.584Z,4.22
2023-01-17T12:47:00.354Z,3.42
2023-01-17T12:49:46.339Z,4.32
2023-01-17T12:52:25.855Z,2.90
2023-01-17T12:55:05.851Z,4.95
2023-01-17T12:57:40.033Z,4.43
2023-01-17T13:00:19.627Z,3.58
2023-01-17T13:03:28.860Z,3.63
2023-01-17T13:05:57.920Z,3.10
2023-01-17T13:08:34.541Z,3.83
2023-01-17T13:11:17.266Z,4.25
2023-01-17T13:13:44.354Z,4.40
2023-01-17T13:16:32.559Z,5.07
2023-01-17T13:19:09.146Z,4.32
2023-01-17T13:21:36.385Z,4.60
2023-01-17T13:24:03.312Z,3.90
2023-01-17T13:26:51.124Z,5.38
2023-01-17T13:29:36.678Z,4.15
2023-01-17T13:32:15.295Z,5.32
2023-01-17T13:35:01.762Z,5.65
2023-01-17T13:37:31.806Z,5.65
2023-01-17T13:40:19.408Z,3.93
2023-01-17T13:43:05.491Z,4.82
2023-01-17T13:45:37.733Z,5.68
2023-01-17T13:48:17.199Z,2.72
2023-01-17T13:50:55.626Z,3.70
2023-01-17T13:53:35.106Z,5.15
2023-01-17T13:56:23.250Z,4.63
2023-01-17T13:58:50.583Z,5.25
2023-01-17T14:01:23.714Z,3.03
2023-01-17T14:03:51.034Z,4.38
2023-01-17T14:06:36.354Z,4.25
2023-01-17T14:09:12.324Z,4.88
2023-01-17T14:12:07.798Z,5.50
2023-01-17T14:14:41.907Z,24.08
2023-01-17T14:17:20.412Z,6.50
2023-01-17T14:19:50.575Z,4.22
2023-01-17T14:22:20.501Z,4.88
2023-01-17T14:25:02.684Z,4.40
2023-01-17T14:27:34.706Z,4.95
2023-01-17T14:30:07.545Z,5.40
2023-01-17T14:32:37.353Z,5.00
2023-01-17T14:35:23.714Z,4.45
2023-01-17T14:37:54.585Z,5.32
2023-01-17T14:40:26.553Z,3.88
2023-01-17T14:43:10.238Z,4.57
2023-01-17T14:45:38.804Z,5.25
2023-01-17T14:48:19.007Z,4.88
2023-01-17T14:50:52.149Z,5.75
2023-01-17T14:53:28.253Z,5.35
2023-01-17T14:55:58.809Z,4.00
2023-01-17T14:58:27.211Z,5.53
2023-01-17T15:01:14.178Z,5.07
2023-01-17T15:03:50.630Z,5.05
2023-01-17T15:09:10.741Z,5.60
2023-01-17T15:11:38.987Z,4.63
2023-01-17T15:14:07.030Z,5.15
2023-01-17T15:16:38.384Z,7.03
2023-01-17T15:19:14.188Z,6.82
2023-01-17T15:21:44.581Z,6.30
2023-01-17T15:24:29.685Z,6.32
2023-01-17T15:26:56.753Z,5.72
2023-01-17T15:29:30.981Z,4.97
2023-01-17T15:32:01.930Z,3.40
2023-01-17T15:37:05.070Z,5.47
2023-01-17T15:39:38.203Z,5.57
2023-01-17T15:42:07.778Z,5.07
2023-01-17T15:44:47.984Z,3.92
2023-01-17T15:50:00.897Z,4.55
2023-01-17T15:52:28.578Z,5.88
2023-01-17T15:55:12.650Z,4.85
2023-01-17T15:57:40.334Z,6.38
2023-01-17T16:00:20.999Z,5.32
2023-01-17T16:02:56.158Z,5.78
2023-01-17T16:05:27.817Z,5.18
2023-01-17T16:08:04.436Z,7.45
2023-01-17T16:10:33.401Z,6.53
2023-01-17T16:13:00.524Z,4.88
2023-01-17T16:15:28.748Z,7.22
2023-01-17T16:18:01.119Z,7.47
2023-01-17T16:20:41.330Z,6.47
2023-01-17T16:23:10.628Z,6.18
2023-01-17T16:25:38.507Z,6.43
2023-01-17T16:28:06.265Z,7.10
2023-01-17T16:30:33.871Z,6.95
2023-01-17T16:33:00.873Z,10.07
2023-01-17T16:35:31.654Z,7.93
2023-01-17T16:38:03.930Z,6.63
2023-01-17T16:40:33.565Z,8.20
2023-01-17T16:43:01.350Z,7.93
2023-01-17T16:45:28.368Z,6.35
2023-01-17T16:47:55.344Z,7.53
2023-01-17T16:50:24.725Z,7.55
2023-01-17T16:52:53.830Z,7.50
2023-01-17T16:55:23.299Z,8.15
2023-01-17T16:57:51.526Z,4.53
2023-01-17T17:00:19.000Z,8.43
2023-01-17T17:02:53.340Z,7.85
2023-01-17T17:05:20.736Z,8.27
2023-01-17T17:07:51.569Z,8.65
2023-01-17T17:10:20.516Z,7.30
2023-01-17T17:12:47.615Z,8.13
2023-01-17T17:15:14.913Z,8.23
2023-01-17T17:17:43.339Z,7.70
2023-01-17T17:20:13.482Z,7.88
2023-01-17T17:22:43.105Z,9.17
2023-01-17T17:25:12.068Z,7.65
2023-01-17T17:27:39.262Z,9.57
2023-01-17T17:30:06.824Z,8.90
2023-01-17T17:32:33.905Z,8.73
2023-01-17T17:35:00.938Z,10.95
2023-01-17T17:37:30.705Z,9.80
2023-01-17T17:39:57.969Z,11.10
2023-01-17T17:42:33.051Z,11.20
2023-01-17T17:44:59.964Z,14.30
2023-01-17T17:47:26.918Z,11.95
2023-01-17T17:49:53.823Z,11.45
2023-01-17T17:52:20.939Z,11.52
2023-01-17T17:54:49.223Z,11.80
2023-01-17T17:57:16.130Z,11.40
2023-01-17T17:59:43.066Z,11.02
2023-01-17T18:02:11.454Z,12.07
2023-01-17T18:04:38.450Z,12.25
2023-01-17T18:07:05.503Z,10.48
2023-01-17T18:09:32.442Z,13.60
2023-01-17T18:11:59.421Z,11.32
2023-01-17T18:14:26.763Z,11.55
2023-01-17T18:16:53.734Z,11.18
2023-01-17T18:19:24.821Z,11.13
2023-01-17T18:21:52.720Z,12.50
2023-01-17T18:24:22.218Z,13.45
2023-01-17T18:26:57.075Z,12.38
2023-01-17T18:29:25.629Z,11.93
2023-01-17T18:31:53.886Z,12.23
2023-01-17T18:34:29.234Z,12.18
2023-01-17T18:36:56.839Z,12.63
2023-01-17T18:39:26.396Z,13.05
2023-01-17T18:41:54.071Z,13.07
2023-01-17T18:44:22.391Z,12.65
2023-01-17T18:46:50.527Z,11.98
2023-01-17T18:49:19.418Z,12.95
2023-01-17T18:51:50.946Z,12.30
2023-01-17T18:54:19.105Z,14.23
2023-01-17T18:56:46.269Z,11.15
2023-01-17T18:59:14.736Z,14.23
2023-01-17T19:01:43.706Z,13.45
2023-01-17T19:04:12.496Z,13.65
2023-01-17T19:06:46.165Z,12.98
2023-01-17T19:09:15.111Z,12.23
2023-01-17T19:11:44.575Z,12.93
2023-01-17T19:14:12.931Z,12.55
2023-01-17T19:16:41.661Z,13.35
2023-01-17T19:19:11.143Z,13.32
2023-01-17T19:21:38.427Z,12.18
2023-01-17T19:24:07.595Z,12.73
2023-01-17T19:26:34.657Z,12.50
2023-01-17T19:29:03.900Z,14.32
2023-01-17T19:31:32.739Z,12.15
2023-01-17T19:34:00.242Z,13.10
2023-01-17T19:36:33.887Z,14.48
2023-01-17T19:39:05.873Z,12.88
2023-01-17T19:41:35.319Z,12.82
2023-01-17T19:44:04.907Z,12.18
2023-01-17T19:46:32.660Z,12.52
2023-01-17T19:48:59.819Z,13.38
2023-01-17T19:51:27.053Z,10.57
2023-01-17T19:53:54.135Z,12.85
2023-01-17T19:56:24.686Z,11.82
2023-01-17T19:58:52.509Z,12.88
2023-01-17T20:01:23.297Z,11.20
2023-01-17T20:03:52.990Z,11.82
2023-01-17T20:06:22.763Z,11.70
2023-01-17T20:08:50.124Z,14.35
2023-01-17T20:11:22.814Z,12.52
2023-01-17T20:13:54.309Z,11.30
2023-01-17T20:16:22.721Z,13.35
2023-01-17T20:18:50.408Z,12.80
2023-01-17T20:21:26.525Z,12.77
2023-01-17T20:23:54.868Z,12.10
2023-01-17T20:26:37.438Z,13.45
2023-01-17T20:29:11.079Z,12.55
2023-01-17T20:31:40.228Z,12.90
2023-01-17T20:34:10.793Z,12.38
2023-01-17T20:36:39.042Z,12.73
2023-01-17T20:39:07.542Z,12.52
2023-01-17T20:41:37.153Z,12.35
2023-01-17T20:44:05.864Z,11.75
2023-01-17T20:46:35.750Z,11.55
2023-01-17T20:49:05.595Z,10.32
2023-01-17T20:51:38.458Z,9.80
2023-01-17T20:54:06.604Z,12.40
2023-01-17T20:56:37.882Z,11.57
2023-01-17T20:59:09.674Z,11.80
2023-01-17T21:01:38.123Z,11.48
2023-01-17T21:04:10.213Z,13.98
2023-01-17T21:06:41.640Z,12.05
2023-01-17T21:09:12.133Z,12.10
2023-01-17T21:11:39.080Z,11.75
2023-01-17T21:14:06.770Z,10.32
2023-01-17T21:16:35.119Z,11.57
2023-01-17T21:19:02.133Z,12.30
2023-01-17T21:21:29.928Z,10.70
2023-01-17T21:23:59.498Z,10.43
2023-01-17T21:26:28.728Z,11.07
2023-01-17T21:28:56.194Z,11.50
2023-01-17T21:31:29.349Z,10.00
2023-01-17T21:34:07.036Z,9.73
2023-01-17T21:36:36.630Z,10.90
2023-01-17T21:39:12.819Z,10.75
2023-01-17T21:41:41.206Z,10.43
2023-01-17T21:44:21.780Z,9.93
2023-01-17T21:46:50.204Z,10.05
2023-01-17T21:49:17.376Z,9.75
2023-01-17T21:51:53.736Z,10.15
2023-01-17T21:54:43.357Z,10.13
2023-01-17T21:57:29.829Z,10.32
2023-01-17T21:59:56.806Z,9.48
2023-01-17T22:02:24.349Z,10.20
2023-01-17T22:04:51.586Z,10.65
2023-01-17T22:07:18.511Z,9.45
2023-01-17T22:09:45.535Z,9.50
2023-01-17T22:12:12.517Z,9.60
2023-01-17T22:14:39.653Z,8.98
2023-01-17T22:17:06.620Z,10.30
2023-01-17T22:19:33.978Z,10.65
2023-01-17T22:22:01.239Z,11.15
2023-01-17T22:24:28.175Z,10.35
2023-01-17T22:26:55.157Z,9.35
2023-01-17T22:29:22.943Z,8.80
2023-01-17T22:31:49.991Z,9.57
2023-01-17T22:34:18.959Z,8.98
2023-01-17T22:36:51.030Z,8.73
2023-01-17T22:39:25.846Z,9.95
2023-01-17T22:41:55.159Z,8.85
2023-01-17T22:44:29.678Z,10.10
2023-01-17T22:47:05.109Z,9.10
2023-01-17T22:49:38.105Z,9.10
2023-01-17T22:52:09.570Z,9.75
2023-01-17T22:54:42.536Z,9.00
2023-01-17T22:57:12.759Z,9.65
2023-01-17T22:59:45.136Z,8.87
2023-01-17T23:02:21.191Z,9.50
2023-01-17T23:04:53.185Z,9.02
2023-01-17T23:07:28.091Z,10.20
2023-01-17T23:09:57.692Z,7.88
2023-01-17T23:12:31.296Z,9.75
2023-01-17T23:15:22.711Z,10.02
2023-01-17T23:18:13.125Z,8.85
2023-01-17T23:20:47.689Z,9.23
2023-01-17T23:23:20.727Z,9.25
2023-01-17T23:25:52.797Z,9.48
2023-01-17T23:28:24.246Z,9.13
2023-01-17T23:30:55.070Z,9.80
2023-01-17T23:33:28.385Z,8.93
2023-01-17T23:35:58.907Z,9.25
2023-01-17T23:38:34.967Z,9.93
2023-01-17T23:41:28.230Z,9.98
2023-01-17T23:43:59.638Z,9.27
2023-01-17T23:46:32.999Z,9.43
2023-01-17T23:49:03.492Z,9.32
2023-01-17T23:51:32.907Z,8.90
2023-01-17T23:54:09.169Z,9.20
2023-01-17T23:56:42.909Z,10.63
2023-01-17T23:59:14.830Z,10.85
